Time;durP1;ratioP1;P1;durP2;ratioP2;P2;SDS_P1;SDS_P2;PMS_P1;PMS_P2;Temp;Humidity;BMP_temperature;BMP_pressure;BME280_temperature;BME280_humidity;BME280_pressure;Samples;Min_cycle;Max_cycle;Signal;HPM_P1;HPM_P2
2022/02/06 00:01:11;;;;;;;4.07;1.58;;;5.00;99.90;;;;;;10384159;28;20474;-61
2022/02/06 00:06:13;;;;;;;3.65;0.50;;;5.10;99.90;;;;;;10378854;28;20065;-61
2022/02/06 00:11:14;;;;;;;2.35;0.77;;;5.10;99.90;;;;;;10378189;28;20165;-61
2022/02/06 00:16:16;;;;;;;4.82;0.57;;;5.10;99.90;;;;;;10376392;28;20091;-64
2022/02/06 00:21:19;;;;;;;1.33;0.60;;;5.10;99.90;;;;;;10380375;28;20050;-62
2022/02/06 00:31:36;;;;;;;1.70;0.50;;;5.10;99.90;;;;;;10382261;28;20145;-62
2022/02/06 00:41:51;;;;;;;5.53;0.40;;;5.20;99.90;;;;;;10382252;28;20053;-59
2022/02/06 00:46:55;;;;;;;4.40;0.70;;;5.20;99.90;;;;;;10382113;28;20136;-60
2022/02/06 00:52:08;;;;;;;0.90;0.22;;;5.30;99.90;;;;;;10380842;28;20132;-59
2022/02/06 00:57:10;;;;;;;7.57;0.47;;;5.30;99.90;;;;;;10381156;28;20146;-60
2022/02/06 01:02:12;;;;;;;4.97;0.50;;;5.30;99.90;;;;;;10379318;28;20037;-62
2022/02/06 01:07:13;;;;;;;3.50;0.30;;;5.40;99.90;;;;;;10384861;28;20045;-59
2022/02/06 01:12:20;;;;;;;4.10;0.40;;;5.30;99.90;;;;;;10380690;28;20061;-60
2022/02/06 01:17:31;;;;;;;5.25;0.40;;;5.40;99.90;;;;;;10376117;28;20104;-59
2022/02/06 01:22:36;;;;;;;3.63;0.50;;;5.40;99.90;;;;;;10385384;28;20057;-60
2022/02/06 01:27:47;;;;;;;2.92;0.60;;;5.40;99.90;;;;;;10394186;28;20136;-60
2022/02/06 01:32:54;;;;;;;3.50;0.50;;;5.40;99.90;;;;;;10393811;28;20088;-60
2022/02/06 01:38:15;;;;;;;3.53;0.57;;;5.30;99.90;;;;;;10385213;28;20072;-60
2022/02/06 01:43:19;;;;;;;3.17;0.93;;;5.20;99.90;;;;;;10388258;28;20107;-61
2022/02/06 02:04:45;;;;;;;8.43;0.70;;;5.00;99.90;;;;;;10389761;28;20361;-61
2022/02/06 02:15:18;;;;;;;6.25;0.70;;;4.90;99.90;;;;;;10384671;28;20111;-61
2022/02/06 02:26:34;;;;;;;9.95;0.95;;;4.90;99.90;;;;;;10383190;28;20083;-61
2022/02/06 02:31:29;;;;;;;4.78;0.60;;;5.00;99.90;;;;;;10381463;28;20132;-60
2022/02/06 02:47:15;;;;;;;9.13;0.90;;;5.10;99.90;;;;;;10381168;28;20042;-61
2022/02/06 02:52:31;;;;;;;2.05;0.50;;;5.20;99.90;;;;;;10384560;28;20061;-61
2022/02/06 02:57:43;;;;;;;2.90;1.25;;;5.30;99.90;;;;;;10382884;28;20057;-62
2022/02/06 03:08:11;;;;;;;4.13;0.60;;;5.40;99.90;;;;;;10384895;28;20129;-62
2022/02/06 03:13:16;;;;;;;3.92;0.60;;;5.40;99.90;;;;;;10384077;28;20068;-61
2022/02/06 03:18:20;;;;;;;2.55;0.60;;;5.50;99.90;;;;;;10379096;28;20072;-60
2022/02/06 03:23:24;;;;;;;4.03;0.98;;;5.50;99.90;;;;;;10380782;28;20128;-61
2022/02/06 03:28:26;;;;;;;4.50;0.68;;;5.60;99.90;;;;;;10382736;28;20081;-61
2022/02/06 03:33:27;;;;;;;5.75;0.77;;;5.60;99.90;;;;;;10379763;28;20065;-61
2022/02/06 03:38:29;;;;;;;4.68;1.10;;;5.60;99.90;;;;;;10381839;28;20107;-60
2022/02/06 03:43:41;;;;;;;7.00;0.70;;;5.60;99.90;;;;;;10380233;28;20148;-60
2022/02/06 03:48:50;;;;;;;3.78;0.80;;;5.60;99.90;;;;;;10382942;28;20049;-60
2022/02/06 03:53:53;;;;;;;5.75;0.75;;;5.60;99.90;;;;;;10381830;28;20073;-61
2022/02/06 03:58:55;;;;;;;5.75;0.68;;;5.60;99.90;;;;;;10384791;28;20069;-60
2022/02/06 04:03:56;;;;;;;2.88;0.50;;;5.70;99.90;;;;;;10384356;28;20503;-61
2022/02/06 04:08:58;;;;;;;5.25;0.73;;;5.70;99.90;;;;;;10379995;28;20140;-60
2022/02/06 04:14:21;;;;;;;7.55;0.85;;;5.60;99.90;;;;;;10378194;28;20562;-60
2022/02/06 04:19:26;;;;;;;4.90;0.70;;;5.70;99.90;;;;;;10380228;28;20107;-62
2022/02/06 04:24:27;;;;;;;4.25;0.98;;;5.70;99.90;;;;;;10387160;28;20077;-60
2022/02/06 04:29:29;;;;;;;2.83;0.43;;;5.70;99.90;;;;;;10380918;28;20407;-60
2022/02/06 04:34:31;;;;;;;3.33;0.60;;;5.70;99.90;;;;;;10381864;28;20144;-61
2022/02/06 05:21:52;;;;;;;1.90;0.63;;;5.70;99.90;;;;;;10385974;28;20632;-61
2022/02/06 05:27:06;;;;;;;4.37;0.50;;;5.70;99.90;;;;;;10385382;28;20731;-61
2022/02/06 05:37:15;;;;;;;2.85;0.50;;;5.80;99.90;;;;;;10384513;28;20132;-60
2022/02/06 05:42:20;;;;;;;3.20;0.50;;;5.80;99.90;;;;;;10385178;28;20120;-61
2022/02/06 05:47:24;;;;;;;2.42;0.65;;;5.90;99.90;;;;;;10390917;28;20083;-61
2022/02/06 05:52:26;;;;;;;2.70;0.80;;;5.90;99.90;;;;;;10385002;28;20461;-60
2022/02/06 05:57:28;;;;;;;5.00;0.88;;;5.90;99.90;;;;;;10387256;28;20152;-61
2022/02/06 06:02:29;;;;;;;2.00;0.55;;;5.90;99.90;;;;;;10389685;28;20061;-60
2022/02/06 06:07:31;;;;;;;3.13;0.40;;;6.00;99.90;;;;;;10385630;28;20080;-60
2022/02/06 06:12:33;;;;;;;0.95;0.40;;;6.00;99.90;;;;;;10383656;28;20180;-60
2022/02/06 06:17:39;;;;;;;2.70;0.40;;;6.00;99.90;;;;;;10379263;28;20103;-60
2022/02/06 06:22:41;;;;;;;2.13;0.60;;;6.00;99.90;;;;;;10386014;28;20118;-60
2022/02/06 06:27:42;;;;;;;5.68;1.05;;;6.00;99.90;;;;;;10387054;28;20496;-59
2022/02/06 06:32:44;;;;;;;3.85;0.55;;;6.10;99.90;;;;;;10384458;28;20496;-60
2022/02/06 06:37:47;;;;;;;4.70;0.50;;;6.10;99.90;;;;;;10387168;28;20073;-60
2022/02/06 06:42:49;;;;;;;4.18;0.47;;;6.00;99.90;;;;;;10383506;28;20081;-60
2022/02/06 06:47:59;;;;;;;3.88;0.50;;;6.10;99.90;;;;;;10384310;28;20112;-61
2022/02/06 06:53:04;;;;;;;2.65;0.80;;;6.00;99.90;;;;;;10381741;28;20139;-63
2022/02/06 06:58:15;;;;;;;7.60;0.98;;;6.10;99.90;;;;;;10379400;28;20057;-63
2022/02/06 07:03:16;;;;;;;2.60;0.50;;;6.00;99.90;;;;;;10383729;28;20167;-64
2022/02/06 07:08:19;;;;;;;4.25;0.40;;;6.10;99.90;;;;;;10382029;28;20053;-64
2022/02/06 07:13:21;;;;;;;4.85;0.70;;;6.10;99.90;;;;;;10383949;28;20111;-64
2022/02/06 07:18:23;;;;;;;1.45;0.47;;;6.10;99.90;;;;;;10377162;28;20057;-64
2022/02/06 07:23:24;;;;;;;3.22;0.40;;;6.10;99.90;;;;;;10376525;28;20136;-64
2022/02/06 07:28:28;;;;;;;2.58;0.52;;;6.10;99.90;;;;;;10382905;28;20088;-64
2022/02/06 07:33:30;;;;;;;2.33;0.32;;;6.10;99.90;;;;;;10386214;28;20049;-64
2022/02/06 07:38:32;;;;;;;0.75;0.32;;;6.10;99.90;;;;;;10385153;28;20072;-64
2022/02/06 07:43:33;;;;;;;9.57;0.50;;;6.10;99.90;;;;;;10375734;28;20139;-64
2022/02/06 07:48:35;;;;;;;2.80;0.85;;;6.10;99.90;;;;;;10377880;28;20076;-64
2022/02/06 07:53:37;;;;;;;2.33;0.28;;;6.10;99.90;;;;;;10383092;28;20053;-64
2022/02/06 07:58:39;;;;;;;2.30;0.90;;;6.10;99.90;;;;;;10380893;28;20122;-64
2022/02/06 08:03:40;;;;;;;2.83;0.50;;;6.10;99.90;;;;;;10378037;28;20128;-64
2022/02/06 08:08:42;;;;;;;4.03;0.50;;;6.10;99.90;;;;;;10380320;28;20075;-64
2022/02/06 08:13:51;;;;;;;10.55;0.50;;;6.10;99.90;;;;;;10381656;28;20124;-64
2022/02/06 08:18:54;;;;;;;2.95;0.70;;;6.20;99.90;;;;;;10376302;28;20345;-64
2022/02/06 08:23:56;;;;;;;4.35;0.50;;;6.10;99.90;;;;;;10380720;28;20132;-64
2022/02/06 08:29:00;;;;;;;1.75;0.40;;;6.10;99.90;;;;;;10384038;28;20558;-65
2022/02/06 08:34:02;;;;;;;6.65;0.40;;;6.00;99.90;;;;;;10388135;28;20543;-65
2022/02/06 08:39:04;;;;;;;6.13;0.40;;;5.90;99.90;;;;;;10391084;28;20041;-65
2022/02/06 08:44:05;;;;;;;7.75;0.93;;;5.80;99.90;;;;;;10386229;28;20044;-64
2022/02/06 08:49:07;;;;;;;2.10;0.47;;;5.70;99.90;;;;;;10387220;28;20521;-64
2022/02/06 08:54:10;;;;;;;2.55;0.40;;;5.70;99.90;;;;;;10373898;28;20061;-63
2022/02/06 08:59:12;;;;;;;18.65;1.55;;;5.60;99.90;;;;;;10400016;28;20088;-63
2022/02/06 09:04:13;;;;;;;8.35;0.60;;;5.60;99.90;;;;;;10386930;28;20199;-64
2022/02/06 09:09:16;;;;;;;4.55;0.73;;;5.60;99.90;;;;;;10387990;28;20460;-66
2022/02/06 09:14:22;;;;;;;1.98;0.47;;;5.60;99.90;;;;;;10384868;28;20488;-64
2022/02/06 09:19:24;;;;;;;4.40;0.50;;;5.50;99.90;;;;;;10385906;28;20057;-65
2022/02/06 09:24:26;;;;;;;2.45;0.50;;;5.50;99.90;;;;;;10393187;28;20288;-65
2022/02/06 09:29:27;;;;;;;3.90;0.77;;;5.50;99.90;;;;;;10389836;28;20122;-66
2022/02/06 09:39:33;;;;;;;3.45;0.40;;;5.50;99.90;;;;;;10387930;28;20132;-66
2022/02/06 09:44:36;;;;;;;2.63;0.40;;;5.50;99.90;;;;;;10387219;28;20061;-65
2022/02/06 09:49:41;;;;;;;2.50;0.30;;;5.50;99.90;;;;;;10388096;28;20459;-65
2022/02/06 09:54:47;;;;;;;1.83;0.38;;;5.60;99.90;;;;;;10385185;28;20528;-66
2022/02/06 09:59:50;;;;;;;2.00;0.30;;;5.50;99.90;;;;;;10389468;28;20086;-70
2022/02/06 10:04:56;;;;;;;1.33;0.32;;;5.50;99.90;;;;;;10381648;28;20073;-65
2022/02/06 10:10:05;;;;;;;3.67;0.35;;;5.60;99.90;;;;;;10388775;28;20500;-67
2022/02/06 10:15:11;;;;;;;3.17;0.30;;;5.60;99.90;;;;;;10384910;28;20136;-67
2022/02/06 10:20:19;;;;;;;2.58;0.43;;;5.60;99.90;;;;;;10384352;28;20080;-66
2022/02/06 10:25:21;;;;;;;8.50;0.93;;;5.50;99.90;;;;;;10384600;28;20041;-67
2022/02/06 10:30:37;;;;;;;6.72;0.80;;;5.60;99.90;;;;;;10386174;28;20120;-66
2022/02/06 10:35:44;;;;;;;3.40;0.25;;;5.60;99.90;;;;;;10380797;28;20052;-66
2022/02/06 10:41:06;;;;;;;4.70;0.60;;;5.60;99.90;;;;;;10383109;28;20041;-66
2022/02/06 10:46:13;;;;;;;3.15;0.50;;;5.70;99.90;;;;;;10381104;28;22419;-65
2022/02/06 10:51:37;;;;;;;0.73;0.30;;;5.70;99.90;;;;;;10381819;28;20128;-66
2022/02/06 10:57:13;;;;;;;1.17;0.40;;;5.60;99.90;;;;;;10387731;28;20115;-66
2022/02/06 11:02:30;;;;;;;1.90;0.43;;;5.60;99.90;;;;;;10383766;28;20073;-66
2022/02/06 11:07:32;;;;;;;1.10;0.40;;;5.60;99.90;;;;;;10385598;28;20135;-65
2022/02/06 11:12:34;;;;;;;0.70;0.35;;;5.70;99.90;;;;;;10384329;28;20119;-65
2022/02/06 11:17:37;;;;;;;1.92;0.55;;;5.60;99.90;;;;;;10379052;28;20381;-65
2022/02/06 11:22:52;;;;;;;3.70;0.55;;;5.60;99.90;;;;;;10384998;28;20148;-65
2022/02/06 11:27:54;;;;;;;0.80;0.45;;;5.70;99.90;;;;;;10373423;28;20049;-65
2022/02/06 11:32:56;;;;;;;5.22;0.30;;;5.60;99.90;;;;;;10376204;28;20071;-66
2022/02/06 11:43:58;;;;;;;3.75;0.45;;;5.70;99.90;;;;;;10374083;28;20053;-66
2022/02/06 11:49:05;;;;;;;;;;;5.60;99.90;;;;;;10356274;28;20045;-66
2022/02/06 11:54:34;;;;;;;0.60;0.20;;;5.60;99.90;;;;;;10376057;28;19932;-66
2022/02/06 11:59:37;;;;;;;8.18;0.40;;;5.50;99.90;;;;;;10363694;28;20049;-66
2022/02/06 12:04:38;;;;;;;5.90;0.28;;;5.50;99.90;;;;;;10373055;28;20435;-65
2022/02/06 12:09:51;;;;;;;3.80;1.65;;;5.50;99.90;;;;;;10342702;28;20189;-66
2022/02/06 12:15:16;;;;;;;0.52;0.30;;;5.50;99.90;;;;;;10380901;28;20462;-66
2022/02/06 12:20:20;;;;;;;2.10;0.20;;;5.50;99.90;;;;;;10377760;28;20045;-66
2022/02/06 12:25:31;;;;;;;1.20;0.20;;;5.50;99.90;;;;;;10379074;28;20080;-67
2022/02/06 12:30:36;;;;;;;2.92;0.10;;;5.60;99.90;;;;;;10373343;28;20122;-66
2022/02/06 12:41:22;;;;;;;2.22;0.20;;;5.50;99.90;;;;;;10370580;28;20496;-67
2022/02/06 12:46:26;;;;;;;0.70;0.20;;;5.50;99.90;;;;;;10380341;28;20543;-66
2022/02/06 12:51:31;;;;;;;3.05;0.28;;;5.50;99.90;;;;;;10378539;28;20053;-67
2022/02/06 12:56:37;;;;;;;2.97;0.17;;;5.50;99.90;;;;;;10374896;28;20057;-67
2022/02/06 13:01:43;;;;;;;0.20;0.10;;;5.40;99.90;;;;;;10377512;28;20053;-66
2022/02/06 13:06:47;;;;;;;0.82;0.30;;;5.40;99.90;;;;;;10376905;28;20045;-66
2022/02/06 13:12:01;;;;;;;0.10;0.10;;;5.40;99.90;;;;;;10391050;28;20084;-66
2022/02/06 13:17:14;;;;;;;1.75;0.20;;;5.40;99.90;;;;;;10380068;28;20484;-66
2022/02/06 13:32:32;;;;;;;0.28;0.10;;;5.40;99.90;;;;;;10385794;28;20088;-65
2022/02/06 13:37:46;;;;;;;0.40;0.17;;;5.40;99.90;;;;;;10388625;28;20134;-65
2022/02/06 13:42:59;;;;;;;0.30;0.10;;;5.40;99.90;;;;;;10385182;28;20049;-64
2022/02/06 13:48:03;;;;;;;0.38;0.10;;;5.40;99.90;;;;;;10386677;28;20303;-65
2022/02/06 13:53:08;;;;;;;0.45;0.10;;;5.50;99.90;;;;;;10386649;28;20485;-65
2022/02/06 13:58:14;;;;;;;2.95;0.30;;;5.60;99.90;;;;;;10375330;28;20222;-65
2022/02/06 14:03:16;;;;;;;2.22;0.10;;;5.60;99.90;;;;;;10384018;28;20057;-66
2022/02/06 14:08:39;;;;;;;2.05;0.30;;;5.70;99.90;;;;;;10380012;28;20498;-67
2022/02/06 14:13:41;;;;;;;1.20;0.20;;;5.70;99.90;;;;;;10384749;28;20082;-67
2022/02/06 14:19:00;;;;;;;1.50;0.17;;;5.80;99.90;;;;;;10384936;28;20056;-67
2022/02/06 14:24:08;;;;;;;0.10;0.10;;;5.80;99.90;;;;;;10385089;28;20049;-68
2022/02/06 14:29:16;;;;;;;0.70;0.10;;;5.90;99.90;;;;;;10380865;28;20108;-68
2022/02/06 14:34:20;;;;;;;0.30;0.13;;;5.90;99.90;;;;;;10385582;28;20126;-68
2022/02/06 14:39:30;;;;;;;0.90;0.70;;;5.90;99.90;;;;;;10383551;28;20133;-68
2022/02/06 14:44:32;;;;;;;2.63;0.10;;;6.00;99.90;;;;;;10380997;28;20511;-68
2022/02/06 14:49:34;;;;;;;0.50;0.20;;;5.90;99.90;;;;;;10385327;28;20443;-67
2022/02/06 14:54:42;;;;;;;0.20;0.00;;;5.90;99.90;;;;;;10380115;28;20045;-67
2022/02/06 14:59:44;;;;;;;0.40;0.10;;;6.00;99.90;;;;;;10379416;28;20069;-67
2022/02/06 15:04:45;;;;;;;0.20;0.10;;;6.00;99.90;;;;;;10379182;28;20057;-67
2022/02/06 15:09:47;;;;;;;0.77;0.10;;;6.00;99.90;;;;;;10392508;28;20139;-67
2022/02/06 15:14:49;;;;;;;0.20;0.10;;;6.00;99.90;;;;;;10382183;28;20052;-67
2022/02/06 15:19:51;;;;;;;1.85;0.10;;;5.90;99.90;;;;;;10386988;28;20050;-66
2022/02/06 15:24:53;;;;;;;0.40;0.10;;;5.90;99.90;;;;;;10379860;28;20089;-66
2022/02/06 15:29:54;;;;;;;0.65;0.00;;;5.90;99.90;;;;;;10383400;28;20041;-66
2022/02/06 15:34:56;;;;;;;0.43;0.10;;;5.80;99.90;;;;;;10383011;28;20053;-65
2022/02/06 15:39:59;;;;;;;0.20;0.10;;;5.70;99.90;;;;;;10378042;28;20077;-66
2022/02/06 15:45:01;;;;;;;0.32;0.20;;;5.80;99.90;;;;;;10380037;28;20100;-67
2022/02/06 15:50:09;;;;;;;2.37;0.10;;;5.80;99.90;;;;;;10382312;28;20076;-67
2022/02/06 15:55:11;;;;;;;0.32;0.32;;;5.80;99.90;;;;;;10375623;28;20280;-69
2022/02/06 16:00:13;;;;;;;0.43;0.10;;;5.80;99.90;;;;;;10401051;28;20672;-68
2022/02/06 16:05:15;;;;;;;0.30;0.10;;;5.70;99.90;;;;;;10378343;28;20184;-69
2022/02/06 16:10:21;;;;;;;0.40;0.10;;;5.60;99.90;;;;;;10378442;28;20057;-69
2022/02/06 16:15:23;;;;;;;1.90;0.30;;;5.40;99.90;;;;;;10376841;28;20085;-69
2022/02/06 16:20:24;;;;;;;2.72;0.13;;;5.30;99.90;;;;;;10384728;28;20146;-68
2022/02/06 16:25:26;;;;;;;0.30;0.05;;;5.20;99.90;;;;;;10371488;28;20062;-68
2022/02/06 16:30:28;;;;;;;2.90;0.00;;;5.10;99.90;;;;;;10377323;28;20435;-67
2022/02/06 16:35:30;;;;;;;0.28;0.03;;;5.00;99.90;;;;;;10381484;28;20150;-67
2022/02/06 16:40:51;;;;;;;1.75;0.10;;;4.90;99.90;;;;;;10380311;28;20033;-62
2022/02/06 16:45:53;;;;;;;2.17;0.17;;;4.90;99.90;;;;;;10378947;28;20037;-61
2022/02/06 16:50:55;;;;;;;0.10;0.10;;;4.80;99.90;;;;;;10390176;28;20284;-61
2022/02/06 16:55:57;;;;;;;0.65;0.13;;;4.80;99.90;;;;;;10390306;28;20088;-62
2022/02/06 17:00:59;;;;;;;2.55;0.20;;;4.70;99.90;;;;;;10393861;28;20503;-61
2022/02/06 17:06:01;;;;;;;0.13;0.10;;;4.70;99.90;;;;;;10385732;28;20144;-61
2022/02/06 17:11:06;;;;;;;0.77;0.32;;;4.60;99.90;;;;;;10383159;28;20045;-62
2022/02/06 17:16:08;;;;;;;1.00;0.22;;;4.60;99.90;;;;;;10391801;28;20077;-62
2022/02/06 17:21:10;;;;;;;0.28;0.10;;;4.60;99.90;;;;;;10389796;28;20057;-62
2022/02/06 17:26:12;;;;;;;0.28;0.10;;;4.60;99.90;;;;;;10385455;28;20132;-61
2022/02/06 17:31:18;;;;;;;0.43;0.17;;;4.50;99.90;;;;;;10385373;28;20439;-61
2022/02/06 17:36:20;;;;;;;3.10;0.10;;;4.50;99.90;;;;;;10384339;28;20788;-61
2022/02/06 17:41:22;;;;;;;0.38;0.20;;;4.50;99.90;;;;;;10381169;28;20103;-60
2022/02/06 17:46:27;;;;;;;0.47;0.20;;;4.50;99.90;;;;;;10382886;28;20060;-61
2022/02/06 17:51:29;;;;;;;1.35;0.20;;;4.50;99.90;;;;;;10381614;28;20072;-61
2022/02/06 17:56:34;;;;;;;2.13;0.17;;;4.50;99.90;;;;;;10382089;28;20377;-63
2022/02/06 18:01:36;;;;;;;1.30;0.20;;;4.40;99.90;;;;;;10379515;28;20400;-62
2022/02/06 18:06:38;;;;;;;0.22;0.20;;;4.40;99.90;;;;;;10385405;28;20132;-61
2022/02/06 18:11:41;;;;;;;1.10;0.30;;;4.50;99.90;;;;;;10376160;28;20046;-61
2022/02/06 18:16:45;;;;;;;0.40;0.30;;;4.50;99.90;;;;;;10383322;28;20133;-62
2022/02/06 18:21:47;;;;;;;0.55;0.20;;;4.50;99.90;;;;;;10381408;28;20057;-61
2022/02/06 18:26:48;;;;;;;0.52;0.20;;;4.50;99.90;;;;;;10386701;28;20061;-61
2022/02/06 18:31:50;;;;;;;1.80;0.20;;;4.60;99.90;;;;;;10383235;28;20717;-62
2022/02/06 18:36:52;;;;;;;0.80;0.10;;;4.60;99.90;;;;;;10385081;28;20049;-62
2022/02/06 18:41:53;;;;;;;1.13;0.22;;;4.60;99.90;;;;;;10384478;28;20123;-61
2022/02/06 18:46:56;;;;;;;3.67;0.60;;;4.70;99.90;;;;;;10388575;28;20057;-61
2022/02/06 18:52:02;;;;;;;1.95;0.20;;;4.70;99.90;;;;;;10383362;28;20137;-61
2022/02/06 18:57:06;;;;;;;0.30;0.22;;;4.80;99.90;;;;;;10378475;28;20454;-61
2022/02/06 19:02:09;;;;;;;0.30;0.10;;;4.90;99.90;;;;;;10377742;28;20128;-61
2022/02/06 19:07:10;;;;;;;0.40;0.10;;;5.00;99.90;;;;;;10384810;28;20069;-61
2022/02/06 19:12:14;;;;;;;0.10;0.10;;;5.10;99.90;;;;;;10381644;28;20124;-61
2022/02/06 19:17:15;;;;;;;0.20;0.10;;;5.10;99.90;;;;;;10388645;28;20442;-61
2022/02/06 19:22:17;;;;;;;0.40;0.30;;;5.00;99.90;;;;;;10382210;28;20045;-60
2022/02/06 19:27:19;;;;;;;1.98;0.10;;;5.00;99.90;;;;;;10379248;28;20053;-59
2022/02/06 19:32:21;;;;;;;0.43;0.10;;;5.00;99.90;;;;;;10384752;28;20115;-61
2022/02/06 19:37:24;;;;;;;1.67;0.20;;;4.90;99.90;;;;;;10382935;28;20154;-61
2022/02/06 19:42:25;;;;;;;0.38;0.17;;;4.90;99.90;;;;;;10394428;28;20077;-60
2022/02/06 19:47:28;;;;;;;0.60;0.20;;;4.90;99.90;;;;;;10382072;28;20167;-60
2022/02/06 19:52:30;;;;;;;1.58;0.25;;;4.80;99.90;;;;;;10385426;28;20095;-60
2022/02/06 19:57:32;;;;;;;0.03;0.00;;;4.80;99.90;;;;;;10382005;28;20038;-60
2022/02/06 20:02:33;;;;;;;0.10;0.10;;;4.90;99.90;;;;;;10379755;28;20473;-60
2022/02/06 20:07:35;;;;;;;0.10;0.10;;;5.20;99.90;;;;;;10375325;28;20156;-61
2022/02/06 20:12:39;;;;;;;0.00;0.00;;;5.20;99.90;;;;;;10378730;28;20068;-60
2022/02/06 20:17:41;;;;;;;0.40;0.10;;;5.10;99.90;;;;;;10380970;28;20144;-60
2022/02/06 20:22:43;;;;;;;0.40;0.10;;;5.10;99.90;;;;;;10385549;28;20076;-61
2022/02/06 20:27:45;;;;;;;0.30;0.10;;;5.10;99.90;;;;;;10393836;28;20045;-60
2022/02/06 20:32:46;;;;;;;0.30;0.10;;;5.10;99.90;;;;;;10390641;28;20081;-60
2022/02/06 20:37:48;;;;;;;0.00;0.00;;;5.10;99.90;;;;;;10395729;28;20465;-60
2022/02/06 20:42:49;;;;;;;1.08;0.10;;;5.20;99.90;;;;;;10396128;28;20593;-60
2022/02/06 20:47:51;;;;;;;0.00;0.00;;;5.10;99.90;;;;;;10395606;28;20053;-59
2022/02/06 20:52:53;;;;;;;0.13;0.00;;;5.10;99.90;;;;;;10395333;28;20073;-59
2022/02/06 20:57:55;;;;;;;0.00;0.00;;;5.00;99.90;;;;;;10396342;28;20056;-60
2022/02/06 21:02:57;;;;;;;0.00;0.00;;;4.60;99.90;;;;;;10392376;28;20123;-60
2022/02/06 21:07:58;;;;;;;0.00;0.00;;;4.50;99.90;;;;;;10394889;28;20708;-60
2022/02/06 21:13:00;;;;;;;0.00;0.00;;;4.30;99.90;;;;;;10390476;28;20111;-60
2022/02/06 21:18:02;;;;;;;0.00;0.00;;;4.10;99.90;;;;;;10393355;28;20146;-59
2022/02/06 21:23:04;;;;;;;0.00;0.00;;;4.00;99.90;;;;;;10394958;28;20061;-59
2022/02/06 21:28:05;;;;;;;0.00;0.00;;;3.90;99.90;;;;;;10392901;28;20049;-59
2022/02/06 21:33:09;;;;;;;0.00;0.00;;;3.90;99.90;;;;;;10391442;28;20386;-59
2022/02/06 21:38:12;;;;;;;0.00;0.00;;;3.90;99.90;;;;;;10390189;28;20099;-60
2022/02/06 21:43:16;;;;;;;0.00;0.00;;;3.90;99.90;;;;;;10383654;28;20052;-59
2022/02/06 21:48:18;;;;;;;0.00;0.00;;;3.80;99.90;;;;;;10384846;28;20073;-60
2022/02/06 21:53:19;;;;;;;0.00;0.00;;;3.90;99.90;;;;;;10386118;28;20112;-60
2022/02/06 21:58:21;;;;;;;0.00;0.00;;;3.90;99.90;;;;;;10387028;28;20124;-62
2022/02/06 22:03:23;;;;;;;0.00;0.00;;;4.10;99.90;;;;;;10379977;28;20369;-61
2022/02/06 22:24:26;;;;;;;0.00;0.00;;;4.20;99.90;;;;;;10393582;28;20054;-61
2022/02/06 22:29:28;;;;;;;0.00;0.00;;;4.30;99.90;;;;;;10383658;28;20049;-62
2022/02/06 22:34:30;;;;;;;0.00;0.00;;;4.10;99.90;;;;;;10385944;28;20064;-61
2022/02/06 22:39:32;;;;;;;0.00;0.00;;;4.00;99.90;;;;;;10384362;28;20107;-61
2022/02/06 22:44:36;;;;;;;0.00;0.00;;;3.90;99.90;;;;;;10384199;28;20119;-61
2022/02/06 22:49:39;;;;;;;0.00;0.00;;;3.80;99.90;;;;;;10387985;28;20532;-61
2022/02/06 22:54:40;;;;;;;0.00;0.00;;;3.90;99.90;;;;;;10383951;28;20132;-61
2022/02/06 22:59:42;;;;;;;0.00;0.00;;;4.10;99.90;;;;;;10382557;28;20054;-61
2022/02/06 23:04:45;;;;;;;0.00;0.00;;;4.20;99.90;;;;;;10383836;28;20115;-61
2022/02/06 23:09:51;;;;;;;0.00;0.00;;;4.20;99.90;;;;;;10377926;28;20163;-60
2022/02/06 23:14:53;;;;;;;0.00;0.00;;;4.20;99.90;;;;;;10379815;28;20049;-61
2022/02/06 23:19:55;;;;;;;0.00;0.00;;;4.20;99.90;;;;;;10384916;28;20134;-61
2022/02/06 23:24:56;;;;;;;0.00;0.00;;;4.20;99.90;;;;;;10382283;28;20077;-60
2022/02/06 23:29:58;;;;;;;0.00;0.00;;;4.30;99.90;;;;;;10380723;28;20053;-60
2022/02/06 23:34:59;;;;;;;0.00;0.00;;;4.40;99.90;;;;;;10383417;28;20075;-61
2022/02/06 23:40:01;;;;;;;0.00;0.00;;;4.30;99.90;;;;;;10379570;28;20049;-62
2022/02/06 23:45:09;;;;;;;0.00;0.00;;;4.30;99.90;;;;;;10379860;28;20112;-60
2022/02/06 23:50:10;;;;;;;0.00;0.00;;;4.40;99.90;;;;;;10378123;28;20078;-60
2022/02/06 23:55:23;;;;;;;0.00;0.00;;;4.60;99.90;;;;;;10381654;28;20273;-61
